createdAt,value
2022-12-08T00:01:28.121Z,82.21
2022-12-08T00:03:59.205Z,82.59
2022-12-08T00:06:53.451Z,82.50
2022-12-08T00:09:39.437Z,82.18
2022-12-08T00:12:15.392Z,82.19
2022-12-08T00:14:45.064Z,82.29
2022-12-08T00:17:14.364Z,81.98
2022-12-08T00:19:42.936Z,82.00
2022-12-08T00:22:11.742Z,82.05
2022-12-08T00:24:40.415Z,81.91
2022-12-08T00:27:09.365Z,82.43
2022-12-08T00:29:37.062Z,82.43
2022-12-08T00:32:05.120Z,82.80
2022-12-08T00:34:33.523Z,82.49
2022-12-08T00:37:00.816Z,82.33
2022-12-08T00:39:28.234Z,81.84
2022-12-08T00:42:13.805Z,81.79
2022-12-08T00:44:46.109Z,81.99
2022-12-08T00:47:14.449Z,81.90
2022-12-08T00:49:41.701Z,81.85
2022-12-08T00:52:08.921Z,82.09
2022-12-08T00:54:35.929Z,81.96
2022-12-08T00:57:02.923Z,82.19
2022-12-08T00:59:30.030Z,82.44
2022-12-08T01:01:57.456Z,81.90
2022-12-08T01:04:24.709Z,81.81
2022-12-08T01:06:52.840Z,82.02
2022-12-08T01:09:19.974Z,81.64
2022-12-08T01:11:47.574Z,81.48
2022-12-08T01:14:15.501Z,81.86
2022-12-08T01:16:43.008Z,81.77
2022-12-08T01:19:12.251Z,81.58
2022-12-08T01:21:40.542Z,82.01
2022-12-08T01:24:10.781Z,82.07
2022-12-08T01:26:37.906Z,81.97
2022-12-08T01:29:05.339Z,82.07
2022-12-08T01:31:32.369Z,82.47
2022-12-08T01:33:59.320Z,82.63
2022-12-08T01:36:28.796Z,82.58
2022-12-08T01:38:58.454Z,82.48
2022-12-08T01:41:28.290Z,82.63
2022-12-08T01:44:02.081Z,83.31
2022-12-08T01:46:32.312Z,82.90
2022-12-08T01:49:04.778Z,83.01
2022-12-08T01:51:36.217Z,82.79
2022-12-08T01:54:06.004Z,82.90
2022-12-08T01:56:43.605Z,82.89
2022-12-08T01:59:12.959Z,82.97
2022-12-08T02:01:40.271Z,83.06
2022-12-08T02:04:07.299Z,82.82
2022-12-08T02:06:40.066Z,82.97
2022-12-08T02:09:08.429Z,82.76
2022-12-08T02:11:35.558Z,82.72
2022-12-08T02:14:08.445Z,82.97
2022-12-08T02:17:05.242Z,83.14
2022-12-08T02:19:35.173Z,82.95
2022-12-08T02:22:16.863Z,83.47
2022-12-08T02:24:53.112Z,83.08
2022-12-08T02:27:58.168Z,83.08
2022-12-08T02:30:56.248Z,83.38
2022-12-08T02:33:57.429Z,83.17
2022-12-08T02:36:40.927Z,83.26
2022-12-08T02:39:42.081Z,82.93
2022-12-08T02:42:21.416Z,82.59
2022-12-08T02:44:51.970Z,82.58
2022-12-08T02:47:23.485Z,82.63
2022-12-08T02:49:50.696Z,82.84
2022-12-08T02:52:18.153Z,82.48
2022-12-08T02:54:55.930Z,82.57
2022-12-08T02:57:31.329Z,82.47
2022-12-08T03:00:14.446Z,82.45
2022-12-08T03:03:02.959Z,82.84
2022-12-08T03:05:51.400Z,82.74
2022-12-08T03:08:51.924Z,82.08
2022-12-08T03:11:30.242Z,82.10
2022-12-08T03:14:01.202Z,82.55
2022-12-08T03:16:31.005Z,82.69
2022-12-08T03:19:09.356Z,83.24
2022-12-08T03:21:39.054Z,83.10
2022-12-08T03:24:08.305Z,82.59
2022-12-08T03:26:39.160Z,82.49
2022-12-08T03:29:09.131Z,82.49
2022-12-08T03:31:42.073Z,82.47
2022-12-08T03:34:12.315Z,82.58
2022-12-08T03:36:41.007Z,83.00
2022-12-08T03:39:10.324Z,82.75
2022-12-08T03:41:38.147Z,82.95
2022-12-08T03:44:05.484Z,82.89
2022-12-08T03:46:33.855Z,83.07
2022-12-08T03:49:01.685Z,82.94
2022-12-08T03:54:10.257Z,83.65
2022-12-08T03:56:41.281Z,84.89
2022-12-08T03:59:09.841Z,84.82
2022-12-08T04:01:37.060Z,85.03
2022-12-08T04:04:04.370Z,85.27
2022-12-08T04:06:31.714Z,84.71
2022-12-08T04:11:40.939Z,83.89
2022-12-08T04:14:08.260Z,84.19
2022-12-08T04:16:35.559Z,84.46
2022-12-08T04:19:04.162Z,84.28
2022-12-08T04:21:47.121Z,84.29
2022-12-08T04:24:14.613Z,84.39
2022-12-08T04:26:41.959Z,84.75
2022-12-08T04:29:10.917Z,85.22
2022-12-08T04:31:42.953Z,85.42
2022-12-08T04:34:17.711Z,85.38
2022-12-08T04:36:47.620Z,86.25
2022-12-08T04:39:15.075Z,86.61
2022-12-08T04:41:43.523Z,86.72
2022-12-08T04:46:54.555Z,87.52
2022-12-08T04:49:22.103Z,86.94
2022-12-08T04:54:31.402Z,88.14
2022-12-08T04:59:42.311Z,88.09
2022-12-08T05:02:09.797Z,88.49
2022-12-08T05:04:38.198Z,87.99
2022-12-08T05:07:06.022Z,87.56
2022-12-08T05:12:16.025Z,87.83
2022-12-08T05:17:31.119Z,88.27
2022-12-08T05:22:48.751Z,88.27
2022-12-08T05:25:16.105Z,88.33
2022-12-08T05:27:43.572Z,87.52
2022-12-08T05:30:10.895Z,87.89
2022-12-08T05:35:19.640Z,87.03
2022-12-08T05:37:59.111Z,86.80
2022-12-08T05:40:26.317Z,86.43
2022-12-08T05:45:45.192Z,87.04
2022-12-08T05:48:13.567Z,87.25
2022-12-08T05:50:45.631Z,87.03
2022-12-08T05:53:12.887Z,86.65
2022-12-08T05:58:24.091Z,86.81
2022-12-08T06:00:51.675Z,87.12
2022-12-08T06:03:19.055Z,86.87
2022-12-08T06:05:47.161Z,87.02
2022-12-08T06:08:15.152Z,86.98
2022-12-08T06:10:43.961Z,88.03
2022-12-08T06:13:11.326Z,87.40
2022-12-08T06:15:39.216Z,87.66
2022-12-08T06:18:06.948Z,87.62
2022-12-08T06:20:34.696Z,87.18
2022-12-08T06:23:02.244Z,87.34
2022-12-08T06:25:29.301Z,87.21
2022-12-08T06:28:06.238Z,87.92
2022-12-08T06:30:33.603Z,88.36
2022-12-08T06:33:00.611Z,88.19
2022-12-08T06:35:27.696Z,88.33
2022-12-08T06:37:55.801Z,88.59
2022-12-08T06:40:23.225Z,87.93
2022-12-08T06:42:50.315Z,87.56
2022-12-08T06:45:18.850Z,87.79
2022-12-08T06:47:45.954Z,87.68
2022-12-08T06:50:14.027Z,87.14
2022-12-08T06:52:53.250Z,87.02
2022-12-08T06:55:57.260Z,86.64
2022-12-08T06:58:14.053Z,85.70
2022-12-08T07:00:42.327Z,86.36
2022-12-08T07:03:11.739Z,86.12
2022-12-08T07:05:39.574Z,87.50
2022-12-08T07:08:08.844Z,85.38
2022-12-08T07:10:37.301Z,84.92
2022-12-08T07:13:04.571Z,85.36
2022-12-08T07:15:31.705Z,84.99
2022-12-08T07:18:00.421Z,85.41
2022-12-08T07:20:28.344Z,84.34
2022-12-08T07:22:56.065Z,84.11
2022-12-08T07:25:24.057Z,84.41
2022-12-08T07:27:51.862Z,83.57
2022-12-08T07:30:19.554Z,83.98
2022-12-08T07:32:47.981Z,83.01
2022-12-08T07:35:15.230Z,83.04
2022-12-08T07:37:42.260Z,83.63
2022-12-08T07:40:10.236Z,83.39
2022-12-08T07:42:37.661Z,82.96
2022-12-08T07:45:05.439Z,83.23
2022-12-08T07:47:32.604Z,82.56
2022-12-08T07:49:59.499Z,82.71
2022-12-08T07:52:26.553Z,82.12
2022-12-08T07:54:53.763Z,82.01
2022-12-08T07:57:22.017Z,81.72
2022-12-08T07:59:49.077Z,82.16
2022-12-08T08:02:25.918Z,81.60
2022-12-08T08:07:36.814Z,81.18
2022-12-08T08:10:05.582Z,81.46
2022-12-08T08:12:33.473Z,81.33
2022-12-08T08:15:10.499Z,81.59
2022-12-08T08:17:38.409Z,80.92
2022-12-08T08:20:09.224Z,81.22
2022-12-08T08:22:36.952Z,81.60
2022-12-08T08:25:04.798Z,81.63
2022-12-08T08:27:31.945Z,81.61
2022-12-08T08:29:59.835Z,80.81
2022-12-08T08:32:26.868Z,81.22
2022-12-08T08:34:53.909Z,80.85
2022-12-08T08:37:21.325Z,81.22
2022-12-08T08:39:49.094Z,81.19
2022-12-08T08:42:16.906Z,80.97
2022-12-08T08:44:43.999Z,81.35
2022-12-08T08:47:11.206Z,80.81
2022-12-08T08:49:38.921Z,80.62
2022-12-08T08:52:06.651Z,81.00
2022-12-08T08:54:35.071Z,80.82
2022-12-08T08:57:03.793Z,80.23
2022-12-08T08:59:39.792Z,80.40
2022-12-08T09:02:07.511Z,80.60
2022-12-08T09:04:35.201Z,80.33
2022-12-08T09:07:02.293Z,80.84
2022-12-08T09:09:36.730Z,81.17
2022-12-08T09:12:06.707Z,82.05
2022-12-08T09:14:34.828Z,82.16
2022-12-08T09:17:02.352Z,82.35
2022-12-08T09:19:30.005Z,81.82
2022-12-08T09:21:59.229Z,82.22
2022-12-08T09:24:29.415Z,81.38
2022-12-08T09:26:56.743Z,81.51
2022-12-08T09:29:26.863Z,81.11
2022-12-08T09:31:57.385Z,81.07
2022-12-08T09:34:34.457Z,81.01
2022-12-08T09:37:02.572Z,81.29
2022-12-08T09:42:14.588Z,81.28
2022-12-08T09:45:13.784Z,83.02
2022-12-08T09:47:45.930Z,85.59
2022-12-08T09:50:19.373Z,86.72
2022-12-08T09:52:59.939Z,88.66
2022-12-08T09:55:52.918Z,87.02
2022-12-08T09:58:45.637Z,87.38
2022-12-08T10:01:20.234Z,86.89
2022-12-08T10:03:47.942Z,87.55
2022-12-08T10:06:33.812Z,89.01
2022-12-08T10:09:37.401Z,87.95
2022-12-08T10:12:16.925Z,87.71
2022-12-08T10:14:56.640Z,86.93
2022-12-08T10:17:41.642Z,86.80
2022-12-08T10:20:46.636Z,85.74
2022-12-08T10:23:14.569Z,86.08
2022-12-08T10:25:46.346Z,84.38
2022-12-08T10:28:16.091Z,84.46
2022-12-08T10:30:43.678Z,84.88
2022-12-08T10:33:20.137Z,85.54
2022-12-08T10:35:49.057Z,84.23
2022-12-08T10:38:36.306Z,83.94
2022-12-08T10:41:09.617Z,83.58
2022-12-08T10:43:42.781Z,83.75
2022-12-08T10:46:18.817Z,83.88
2022-12-08T10:49:10.596Z,83.39
2022-12-08T10:51:43.431Z,83.57
2022-12-08T10:54:34.322Z,83.94
2022-12-08T10:57:01.632Z,83.40
2022-12-08T10:59:29.388Z,84.69
2022-12-08T11:01:57.707Z,84.50
2022-12-08T11:04:39.205Z,84.47
2022-12-08T11:07:12.085Z,86.02
2022-12-08T11:12:33.127Z,85.50
2022-12-08T11:15:05.977Z,86.27
2022-12-08T11:17:41.421Z,86.04
2022-12-08T11:20:11.645Z,85.60
2022-12-08T11:22:43.134Z,85.65
2022-12-08T11:25:27.892Z,85.38
2022-12-08T11:27:59.823Z,86.38
2022-12-08T11:30:42.661Z,85.17
2022-12-08T11:36:05.103Z,85.59
2022-12-08T11:38:34.362Z,85.99
2022-12-08T11:41:15.792Z,86.16
2022-12-08T11:43:52.005Z,86.65
2022-12-08T11:46:43.087Z,85.36
2022-12-08T11:49:13.582Z,84.81
2022-12-08T11:54:34.737Z,85.27
2022-12-08T11:57:06.316Z,85.61
2022-12-08T11:59:44.576Z,85.68
2022-12-08T12:02:18.280Z,85.60
2022-12-08T12:04:45.452Z,86.45
2022-12-08T12:07:26.416Z,85.85
2022-12-08T12:10:12.483Z,86.00
2022-12-08T12:13:13.033Z,85.83
2022-12-08T12:15:46.597Z,86.18
2022-12-08T12:18:26.628Z,85.95
2022-12-08T12:20:56.599Z,86.26
2022-12-08T12:23:40.793Z,86.08
2022-12-08T12:26:17.221Z,85.81
2022-12-08T12:29:06.269Z,85.41
2022-12-08T12:31:48.745Z,86.47
2022-12-08T12:34:31.376Z,86.25
2022-12-08T12:37:11.197Z,85.98
2022-12-08T12:39:58.532Z,85.27
2022-12-08T12:42:46.959Z,85.91
2022-12-08T12:45:18.330Z,85.25
2022-12-08T12:47:52.568Z,85.63
2022-12-08T12:53:16.737Z,86.17
2022-12-08T12:55:57.763Z,86.24
2022-12-08T12:58:30.402Z,85.99
2022-12-08T13:01:13.606Z,86.55
2022-12-08T13:03:44.706Z,86.04
2022-12-08T13:06:16.480Z,86.69
2022-12-08T13:08:54.103Z,86.35
2022-12-08T13:11:23.415Z,86.27
2022-12-08T13:14:05.974Z,86.11
2022-12-08T13:16:39.636Z,86.20
2022-12-08T13:19:16.488Z,85.91
2022-12-08T13:30:37.893Z,85.00
2022-12-08T13:33:19.265Z,85.36
2022-12-08T13:36:23.238Z,85.22
2022-12-08T13:38:56.707Z,85.28
2022-12-08T13:41:37.187Z,85.35
2022-12-08T13:47:32.958Z,84.93
2022-12-08T14:01:33.441Z,85.24
2022-12-08T14:06:52.099Z,85.11
2022-12-08T14:09:23.265Z,85.18
2022-12-08T14:12:04.420Z,85.00
2022-12-08T14:17:20.004Z,85.13
2022-12-08T14:22:57.672Z,85.23
2022-12-08T14:25:28.240Z,84.95
2022-12-08T14:28:05.930Z,85.18
2022-12-08T14:30:36.877Z,85.27
2022-12-08T14:35:56.088Z,84.82
2022-12-08T14:38:25.845Z,85.03
2022-12-08T14:41:08.505Z,85.53
2022-12-08T14:43:36.229Z,85.02
2022-12-08T14:46:19.812Z,84.68
2022-12-08T14:49:02.799Z,84.90
2022-12-08T14:51:35.111Z,84.55
2022-12-08T14:54:18.515Z,85.24
2022-12-08T14:59:31.837Z,85.28
2022-12-08T15:02:24.419Z,85.58
2022-12-08T15:04:59.913Z,85.87
2022-12-08T15:07:32.246Z,85.12
2022-12-08T15:13:05.463Z,84.68
2022-12-08T15:18:37.724Z,85.00
2022-12-08T15:21:13.620Z,85.07
2022-12-08T15:23:50.498Z,84.71
2022-12-08T15:29:26.223Z,84.99
2022-12-08T15:32:01.572Z,85.35
2022-12-08T15:34:36.028Z,85.11
2022-12-08T15:37:04.772Z,85.11
2022-12-08T15:42:19.789Z,85.33
2022-12-08T15:44:47.684Z,85.36
2022-12-08T15:47:24.401Z,85.58
2022-12-08T15:50:20.200Z,85.65
2022-12-08T15:55:38.733Z,85.51
2022-12-08T16:00:52.881Z,86.07
2022-12-08T16:09:23.634Z,85.44
2022-12-08T16:12:18.323Z,85.74
2022-12-08T16:17:32.815Z,85.44
2022-12-08T16:25:36.343Z,85.60
2022-12-08T16:33:45.756Z,85.26
2022-12-08T16:36:22.612Z,86.15
2022-12-08T16:42:21.457Z,86.01
2022-12-08T16:47:33.774Z,86.11
2022-12-08T16:52:52.076Z,86.07
2022-12-08T17:06:20.264Z,87.51
2022-12-08T17:11:42.604Z,87.41
2022-12-08T17:35:53.645Z,89.10
2022-12-08T17:38:35.586Z,89.34
2022-12-08T17:57:48.477Z,90.45
2022-12-08T18:03:06.455Z,90.85
2022-12-08T18:05:44.916Z,90.84
2022-12-08T18:16:25.152Z,91.86
2022-12-08T18:24:23.196Z,91.73
2022-12-08T18:26:52.459Z,91.59
2022-12-08T18:29:21.006Z,91.53
2022-12-08T18:31:49.136Z,92.47
2022-12-08T18:34:19.025Z,93.55
2022-12-08T18:36:46.258Z,93.40
2022-12-08T18:39:26.552Z,93.44
2022-12-08T18:41:55.721Z,93.13
2022-12-08T18:44:23.226Z,92.96
2022-12-08T18:46:51.209Z,93.04
2022-12-08T18:49:20.285Z,93.73
2022-12-08T18:51:47.755Z,93.82
2022-12-08T18:54:15.330Z,94.02
2022-12-08T18:56:42.553Z,93.50
2022-12-08T18:59:11.385Z,93.74
2022-12-08T19:01:39.951Z,93.83
2022-12-08T19:04:27.960Z,93.88
2022-12-08T19:06:56.586Z,94.03
2022-12-08T19:09:35.082Z,94.25
2022-12-08T19:12:02.554Z,94.69
2022-12-08T19:14:40.263Z,94.72
2022-12-08T19:22:36.703Z,94.69
2022-12-08T19:25:05.098Z,94.76
2022-12-08T19:27:36.729Z,94.35
2022-12-08T19:30:04.541Z,95.07
2022-12-08T19:35:15.414Z,95.22
2022-12-08T19:37:43.109Z,95.54
2022-12-08T19:40:31.961Z,95.61
2022-12-08T19:43:18.246Z,95.25
2022-12-08T19:45:45.478Z,95.95
2022-12-08T19:48:14.239Z,95.71
2022-12-08T19:50:42.500Z,95.66
2022-12-08T19:53:14.950Z,95.72
2022-12-08T19:55:44.117Z,95.83
2022-12-08T20:00:56.772Z,95.65
2022-12-08T20:03:23.945Z,96.10
2022-12-08T20:05:53.347Z,96.48
2022-12-08T20:08:20.856Z,96.49
2022-12-08T20:10:48.185Z,95.88
2022-12-08T20:13:35.564Z,95.82
2022-12-08T20:16:02.761Z,96.32
2022-12-08T20:18:30.067Z,96.22
2022-12-08T20:20:58.350Z,96.14
2022-12-08T20:23:25.686Z,96.00
2022-12-08T20:25:53.233Z,96.37
2022-12-08T20:28:21.149Z,96.74
2022-12-08T20:30:49.724Z,97.32
2022-12-08T20:33:18.603Z,97.29
2022-12-08T20:35:47.680Z,97.14
2022-12-08T20:38:14.933Z,97.17
2022-12-08T20:40:47.429Z,97.52
2022-12-08T20:43:14.977Z,96.81
2022-12-08T20:45:42.083Z,97.03
2022-12-08T20:48:09.037Z,96.96
2022-12-08T20:50:36.244Z,97.36
2022-12-08T20:53:04.214Z,97.56
2022-12-08T20:55:31.503Z,97.38
2022-12-08T20:57:58.850Z,97.24
2022-12-08T21:00:27.381Z,97.15
2022-12-08T21:02:56.746Z,96.89
2022-12-08T21:05:25.429Z,96.70
2022-12-08T21:07:53.085Z,96.46
2022-12-08T21:10:20.404Z,96.66
2022-12-08T21:12:47.676Z,96.47
2022-12-08T21:15:14.672Z,96.81
2022-12-08T21:17:41.966Z,95.71
2022-12-08T21:20:10.129Z,95.58
2022-12-08T21:22:37.713Z,96.29
2022-12-08T21:25:07.368Z,95.22
2022-12-08T21:27:34.614Z,95.95
2022-12-08T21:30:01.694Z,95.45
2022-12-08T21:32:32.450Z,95.38
2022-12-08T21:34:59.622Z,95.73
2022-12-08T21:37:26.757Z,95.61
2022-12-08T21:39:53.789Z,95.22
2022-12-08T21:42:40.086Z,95.57
2022-12-08T21:45:07.765Z,95.58
2022-12-08T21:47:36.737Z,95.32
2022-12-08T21:50:04.669Z,95.26
2022-12-08T21:52:32.841Z,95.60
2022-12-08T21:55:00.419Z,95.42
2022-12-08T21:57:27.585Z,95.72
2022-12-08T21:59:55.312Z,95.33
2022-12-08T22:02:23.226Z,95.45
2022-12-08T22:04:52.942Z,95.54
2022-12-08T22:07:34.979Z,96.06
2022-12-08T22:10:02.551Z,95.95
2022-12-08T22:12:31.496Z,96.16
2022-12-08T22:14:58.827Z,95.86
2022-12-08T22:17:27.295Z,95.67
2022-12-08T22:19:54.431Z,95.83
2022-12-08T22:22:21.538Z,96.51
2022-12-08T22:24:49.140Z,96.16
2022-12-08T22:27:17.326Z,95.82
2022-12-08T22:29:45.239Z,96.35
2022-12-08T22:32:12.449Z,96.39
2022-12-08T22:34:39.651Z,96.64
2022-12-08T22:37:07.233Z,96.43
2022-12-08T22:39:35.842Z,96.52
2022-12-08T22:42:03.355Z,96.36
2022-12-08T22:44:30.630Z,96.46
2022-12-08T22:46:57.882Z,96.19
2022-12-08T22:49:25.866Z,96.21
2022-12-08T22:51:53.703Z,96.49
2022-12-08T22:54:22.076Z,96.66
2022-12-08T22:56:49.265Z,96.24
2022-12-08T22:59:16.345Z,96.99
2022-12-08T23:01:44.891Z,96.88
2022-12-08T23:04:17.377Z,96.50
2022-12-08T23:06:45.111Z,96.80
2022-12-08T23:09:12.608Z,96.26
2022-12-08T23:11:40.191Z,96.45
2022-12-08T23:14:07.430Z,96.74
2022-12-08T23:16:34.948Z,96.64
2022-12-08T23:19:02.424Z,96.48
2022-12-08T23:21:29.835Z,95.87
2022-12-08T23:23:57.233Z,96.45
2022-12-08T23:26:27.322Z,96.64
2022-12-08T23:28:55.081Z,96.84
2022-12-08T23:31:23.772Z,96.36
2022-12-08T23:33:52.437Z,96.82
2022-12-08T23:36:25.775Z,96.40
2022-12-08T23:38:54.557Z,96.03
2022-12-08T23:41:22.189Z,95.76
2022-12-08T23:43:51.996Z,95.99
2022-12-08T23:46:21.938Z,95.78
2022-12-08T23:48:50.615Z,96.54
2022-12-08T23:51:18.450Z,96.00
2022-12-08T23:53:46.347Z,95.82
2022-12-08T23:56:16.820Z,95.76
2022-12-08T23:58:45.124Z,95.79
